Fort Lawton, Washington
Current Conditions -  °F | °C
As of 8:53 PM on Monday 20 Oct 2014 (Local Time) from KBFI Reporting Station
Light Rain Light Rain  
Wind Chill: 58°   Ceiling: 4700
Heat Index: 58°   Visibility: 10mi
Dew Point: 51°   Wind: 5mph
Humidity: 78%   Direction: 160°SSE
Pressure: 29.77"   Gusts: NA
Location:  47.6473°N, 122.399°W
Report Text: KBFI 210353Z 16004KT 10SM -RA SCT030 OVC047 14/11 A2977 RMK AO2 RAB49 SLP081 P0000 T01440106
Loading
Personal Weather Stations






























Interactive Weather Map
Tropical Storm Tracking
New forecast layout! Learn more

10-Day Weather Forecast

Advertisements
Track Severe Weather on mobile